createdAt,value
2018-12-20T00:00:48.142Z,16.43
2018-12-20T00:03:16.616Z,16.13
2018-12-20T00:05:44.991Z,17.20
2018-12-20T00:08:13.612Z,17.23
2018-12-20T00:10:42.043Z,15.53
2018-12-20T00:13:10.336Z,17.13
2018-12-20T00:15:38.692Z,16.70
2018-12-20T00:18:07.180Z,16.13
2018-12-20T00:20:35.472Z,15.40
2018-12-20T00:23:04.062Z,13.43
2018-12-20T00:25:32.327Z,16.17
2018-12-20T00:28:00.744Z,13.73
2018-12-20T00:30:29.263Z,15.33
2018-12-20T00:32:57.755Z,11.23
2018-12-20T00:35:26.281Z,16.43
2018-12-20T00:37:54.734Z,10.53
2018-12-20T00:40:23.395Z,10.27
2018-12-20T00:42:52.064Z,10.03
2018-12-20T00:45:20.786Z,10.67
2018-12-20T00:47:48.882Z,13.33
2018-12-20T00:50:17.518Z,9.43
2018-12-20T00:52:45.773Z,9.70
2018-12-20T00:55:14.498Z,10.93
2018-12-20T00:57:43.218Z,13.77
2018-12-20T01:00:12.027Z,11.20
2018-12-20T01:02:40.540Z,10.63
2018-12-20T01:05:09.159Z,9.57
2018-12-20T01:07:37.767Z,10.93
2018-12-20T01:10:05.868Z,11.03
2018-12-20T01:12:34.272Z,10.17
2018-12-20T01:15:02.784Z,10.27
2018-12-20T01:17:32.864Z,12.57
2018-12-20T01:20:01.470Z,9.50
2018-12-20T01:22:29.929Z,13.03
2018-12-20T01:24:58.462Z,13.60
2018-12-20T01:27:26.811Z,11.23
2018-12-20T01:29:55.330Z,11.67
2018-12-20T01:32:23.767Z,12.23
2018-12-20T01:34:52.300Z,11.10
2018-12-20T01:37:20.940Z,9.80
2018-12-20T01:39:49.568Z,13.90
2018-12-20T01:42:18.216Z,10.47
2018-12-20T01:44:53.341Z,12.97
2018-12-20T01:47:17.097Z,10.77
2018-12-20T01:49:45.267Z,9.07
2018-12-20T01:52:13.719Z,7.63
2018-12-20T01:54:42.079Z,7.60
2018-12-20T01:57:10.408Z,7.63
2018-12-20T01:59:38.740Z,7.33
2018-12-20T02:02:07.031Z,7.80
2018-12-20T02:04:35.180Z,8.83
2018-12-20T02:07:03.713Z,6.27
2018-12-20T02:09:32.466Z,7.33
2018-12-20T02:12:01.086Z,7.93
2018-12-20T02:14:29.453Z,8.30
2018-12-20T02:16:57.819Z,8.27
2018-12-20T02:19:26.128Z,9.23
2018-12-20T02:21:54.483Z,6.07
2018-12-20T02:24:22.960Z,8.13
2018-12-20T02:26:51.363Z,8.40
2018-12-20T02:29:19.415Z,8.77
2018-12-20T02:31:47.694Z,10.60
2018-12-20T02:34:16.078Z,7.67
2018-12-20T02:36:44.719Z,6.60
2018-12-20T02:39:13.103Z,6.63
2018-12-20T02:41:41.633Z,6.50
2018-12-20T02:44:10.276Z,6.63
2018-12-20T02:46:38.554Z,8.63
2018-12-20T02:49:07.134Z,8.73
2018-12-20T02:51:35.249Z,6.00
2018-12-20T02:54:03.545Z,5.60
2018-12-20T02:56:31.996Z,11.17
2018-12-20T02:59:00.132Z,7.67
2018-12-20T03:01:28.638Z,6.27
2018-12-20T03:03:57.438Z,5.90
2018-12-20T03:06:25.662Z,6.27
2018-12-20T03:08:54.125Z,5.30
2018-12-20T03:11:22.748Z,4.83
2018-12-20T03:13:51.306Z,4.67
2018-12-20T03:16:19.849Z,5.53
2018-12-20T03:18:48.081Z,6.67
2018-12-20T03:21:16.745Z,7.77
2018-12-20T03:23:45.358Z,3.77
2018-12-20T03:26:13.875Z,4.40
2018-12-20T03:28:42.312Z,6.77
2018-12-20T03:31:10.546Z,4.63
2018-12-20T03:33:39.200Z,6.03
2018-12-20T03:36:07.288Z,7.77
2018-12-20T03:38:35.792Z,4.90
2018-12-20T03:41:04.474Z,4.87
2018-12-20T03:43:32.918Z,4.30
2018-12-20T03:46:01.514Z,4.37
2018-12-20T03:48:30.070Z,3.07
2018-12-20T03:50:58.592Z,4.57
2018-12-20T03:53:27.197Z,2.60
2018-12-20T03:55:55.910Z,3.30
2018-12-20T03:58:24.439Z,3.90
2018-12-20T04:00:52.988Z,2.80
2018-12-20T04:03:21.289Z,3.30
2018-12-20T04:05:49.969Z,2.80
2018-12-20T04:08:18.379Z,4.00
2018-12-20T04:10:46.811Z,3.33
2018-12-20T04:13:15.391Z,3.80
2018-12-20T04:15:44.032Z,3.40
2018-12-20T04:18:12.515Z,2.67
2018-12-20T04:20:40.901Z,2.57
2018-12-20T04:23:09.435Z,3.80
2018-12-20T04:25:38.082Z,2.60
2018-12-20T04:28:06.745Z,2.90
2018-12-20T04:30:35.473Z,2.43
2018-12-20T04:33:03.884Z,3.73
2018-12-20T04:35:32.557Z,2.60
2018-12-20T04:38:01.064Z,3.40
2018-12-20T04:40:29.753Z,2.10
2018-12-20T04:42:58.393Z,6.90
2018-12-20T04:45:26.705Z,2.57
2018-12-20T04:47:55.247Z,2.43
2018-12-20T04:50:24.049Z,2.77
2018-12-20T04:52:52.605Z,2.20
2018-12-20T04:55:20.834Z,3.13
2018-12-20T04:57:49.626Z,3.60
2018-12-20T05:00:17.698Z,1.77
2018-12-20T05:02:45.971Z,2.97
2018-12-20T05:05:14.506Z,2.97
2018-12-20T05:07:42.886Z,3.13
2018-12-20T05:10:11.797Z,1.77
2018-12-20T05:12:40.078Z,2.00
2018-12-20T05:15:08.641Z,2.43
2018-12-20T05:17:37.363Z,1.93
2018-12-20T05:20:06.246Z,1.77
2018-12-20T05:22:34.916Z,2.20
2018-12-20T05:25:03.583Z,2.60
2018-12-20T05:27:31.885Z,2.50
2018-12-20T05:30:00.390Z,4.23
2018-12-20T05:32:28.980Z,2.03
2018-12-20T05:34:57.641Z,4.03
2018-12-20T05:37:26.092Z,4.97
2018-12-20T05:39:54.212Z,2.20
2018-12-20T05:42:22.641Z,2.63
2018-12-20T05:44:51.274Z,3.33
2018-12-20T05:47:19.809Z,4.13
2018-12-20T05:49:48.088Z,2.50
2018-12-20T05:52:16.727Z,3.10
2018-12-20T05:54:45.047Z,2.20
2018-12-20T05:57:13.690Z,2.20
2018-12-20T05:59:42.251Z,2.10
2018-12-20T06:02:10.737Z,2.10
2018-12-20T06:04:39.142Z,5.37
2018-12-20T06:07:07.886Z,3.13
2018-12-20T06:09:36.531Z,3.07
2018-12-20T06:12:05.107Z,2.97
2018-12-20T06:14:33.629Z,2.40
2018-12-20T06:17:02.006Z,2.37
2018-12-20T06:19:30.685Z,2.00
2018-12-20T06:21:59.353Z,3.00
2018-12-20T06:24:27.865Z,3.07
2018-12-20T06:26:56.199Z,2.10
2018-12-20T06:29:24.609Z,3.53
2018-12-20T06:31:52.946Z,2.20
2018-12-20T06:34:21.269Z,2.77
2018-12-20T06:36:49.582Z,2.53
2018-12-20T06:39:18.046Z,2.70
2018-12-20T06:41:46.369Z,2.97
2018-12-20T06:44:14.642Z,2.57
2018-12-20T06:46:50.346Z,3.63
2018-12-20T06:49:18.677Z,2.97
2018-12-20T06:51:47.001Z,3.10
2018-12-20T06:54:15.294Z,3.53
2018-12-20T06:56:43.608Z,2.50
2018-12-20T06:59:11.903Z,4.33
2018-12-20T07:01:40.282Z,2.27
2018-12-20T07:04:08.644Z,3.23
2018-12-20T07:06:36.990Z,3.17
2018-12-20T07:09:07.540Z,2.97
2018-12-20T07:11:35.856Z,2.43
2018-12-20T07:14:04.200Z,5.57
2018-12-20T07:16:32.514Z,3.70
2018-12-20T07:19:00.804Z,3.40
2018-12-20T07:21:29.121Z,4.57
2018-12-20T07:23:57.525Z,4.07
2018-12-20T07:26:25.889Z,2.70
2018-12-20T07:28:54.175Z,3.13
2018-12-20T07:31:22.236Z,3.97
2018-12-20T07:33:50.630Z,3.57
2018-12-20T07:36:18.992Z,5.93
2018-12-20T07:38:47.288Z,8.50
2018-12-20T07:41:15.646Z,2.37
2018-12-20T07:43:43.994Z,2.70
2018-12-20T07:46:12.371Z,3.10
2018-12-20T07:48:40.552Z,4.73
2018-12-20T07:51:08.850Z,2.60
2018-12-20T07:53:37.019Z,3.30
2018-12-20T07:56:05.401Z,3.87
2018-12-20T07:58:33.974Z,3.00
2018-12-20T08:01:02.244Z,2.47
2018-12-20T08:03:30.614Z,2.87
2018-12-20T08:05:58.918Z,2.80
2018-12-20T08:08:27.208Z,2.77
2018-12-20T08:10:55.636Z,2.73
2018-12-20T08:13:23.923Z,2.93
2018-12-20T08:15:52.220Z,2.80
2018-12-20T08:18:20.513Z,2.80
2018-12-20T08:20:48.886Z,3.00
2018-12-20T08:23:17.349Z,2.60
2018-12-20T08:25:45.641Z,1.87
2018-12-20T08:28:13.948Z,3.87
2018-12-20T08:30:42.381Z,2.07
2018-12-20T08:33:10.678Z,2.63
2018-12-20T08:35:38.852Z,2.30
2018-12-20T08:38:07.153Z,3.63
2018-12-20T08:40:35.612Z,1.87
2018-12-20T08:43:04.028Z,4.80
2018-12-20T08:45:32.465Z,3.50
2018-12-20T08:48:00.770Z,2.20
2018-12-20T08:50:29.043Z,3.20
2018-12-20T08:52:57.385Z,2.37
2018-12-20T08:55:25.668Z,1.63
2018-12-20T08:57:53.953Z,2.70
2018-12-20T09:00:22.313Z,2.27
2018-12-20T09:02:50.715Z,1.50
2018-12-20T09:05:18.990Z,1.50
2018-12-20T09:07:47.284Z,2.77
2018-12-20T09:10:15.553Z,2.33
2018-12-20T09:12:43.877Z,1.57
2018-12-20T09:15:12.236Z,1.63
2018-12-20T09:17:40.537Z,3.10
2018-12-20T09:20:08.837Z,1.70
2018-12-20T09:22:37.116Z,1.60
2018-12-20T09:25:05.473Z,2.13
2018-12-20T09:27:33.753Z,1.80
2018-12-20T09:30:02.150Z,1.53
2018-12-20T09:32:30.485Z,1.73
2018-12-20T09:34:58.784Z,1.50
2018-12-20T09:37:27.051Z,1.67
2018-12-20T09:39:55.510Z,1.63
2018-12-20T09:42:24.096Z,1.67
2018-12-20T09:44:52.390Z,2.30
2018-12-20T09:47:26.263Z,1.80
2018-12-20T09:49:54.550Z,2.30
2018-12-20T09:52:22.832Z,2.10
2018-12-20T09:54:51.131Z,2.23
2018-12-20T09:57:19.408Z,1.50
2018-12-20T09:59:47.762Z,1.63
2018-12-20T10:02:16.139Z,1.73
2018-12-20T10:04:44.431Z,3.43
2018-12-20T10:07:12.709Z,1.53
2018-12-20T10:09:41.093Z,1.90
2018-12-20T10:12:09.368Z,1.03
2018-12-20T10:14:37.770Z,1.60
2018-12-20T10:17:06.108Z,1.30
2018-12-20T10:19:34.396Z,1.63
2018-12-20T10:22:02.671Z,1.90
2018-12-20T10:24:31.021Z,1.50
2018-12-20T10:27:00.111Z,2.30
2018-12-20T10:29:28.429Z,1.30
2018-12-20T10:31:56.698Z,1.70
2018-12-20T10:34:25.017Z,1.57
2018-12-20T10:36:53.286Z,1.07
2018-12-20T10:39:21.938Z,1.87
2018-12-20T10:41:50.298Z,1.40
2018-12-20T10:44:18.602Z,1.87
2018-12-20T10:46:46.871Z,1.43
2018-12-20T10:49:15.332Z,0.83
2018-12-20T10:51:43.663Z,1.57
2018-12-20T10:54:12.062Z,2.10
2018-12-20T10:56:40.428Z,1.10
2018-12-20T10:59:08.743Z,1.07
2018-12-20T11:01:42.480Z,2.23
2018-12-20T11:04:16.259Z,0.80
2018-12-20T11:06:50.254Z,1.60
2018-12-20T11:09:23.886Z,1.13
2018-12-20T11:11:57.640Z,1.13
2018-12-20T11:14:26.074Z,0.73
2018-12-20T11:16:54.379Z,0.93
2018-12-20T11:19:24.450Z,0.60
2018-12-20T11:21:52.714Z,1.33
2018-12-20T11:24:21.032Z,1.30
2018-12-20T11:26:49.385Z,1.80
2018-12-20T11:29:17.685Z,1.07
2018-12-20T11:31:45.966Z,0.30
2018-12-20T11:34:14.333Z,1.20
2018-12-20T11:36:42.664Z,0.93
2018-12-20T11:39:10.984Z,0.97
2018-12-20T11:41:39.301Z,1.43
2018-12-20T11:44:07.567Z,2.90
2018-12-20T11:46:36.064Z,0.80
2018-12-20T11:49:04.376Z,0.40
2018-12-20T11:51:32.696Z,1.33
2018-12-20T11:54:01.150Z,1.13
2018-12-20T11:56:29.461Z,4.57
2018-12-20T11:58:57.817Z,1.00
2018-12-20T12:01:26.391Z,1.30
2018-12-20T12:03:57.533Z,0.60
2018-12-20T12:06:25.014Z,1.27
2018-12-20T12:08:53.315Z,0.90
2018-12-20T12:11:21.638Z,0.70
2018-12-20T12:13:49.953Z,2.90
2018-12-20T12:16:18.304Z,2.70
2018-12-20T12:18:46.653Z,1.73
2018-12-20T12:21:15.035Z,1.53
2018-12-20T12:23:43.440Z,0.97
2018-12-20T12:26:11.751Z,1.13
2018-12-20T12:28:40.839Z,0.93
2018-12-20T12:31:09.239Z,2.17
2018-12-20T12:33:37.511Z,1.80
2018-12-20T12:36:05.861Z,1.83
2018-12-20T12:38:34.301Z,1.00
2018-12-20T12:41:02.682Z,2.20
2018-12-20T12:43:30.940Z,0.73
2018-12-20T12:45:59.350Z,1.70
2018-12-20T12:48:27.627Z,1.60
2018-12-20T12:50:55.946Z,0.93
2018-12-20T12:53:24.664Z,0.90
2018-12-20T12:55:52.954Z,1.23
2018-12-20T12:58:21.214Z,1.53
2018-12-20T13:00:49.542Z,2.33
2018-12-20T13:03:17.877Z,0.80
2018-12-20T13:05:46.168Z,1.03
2018-12-20T13:08:14.441Z,1.23
2018-12-20T13:10:42.724Z,1.13
2018-12-20T13:13:11.160Z,1.00
2018-12-20T13:15:39.570Z,1.23
2018-12-20T13:18:13.827Z,0.67
2018-12-20T13:20:38.314Z,0.70
2018-12-20T13:23:06.626Z,0.57
2018-12-20T13:25:35.024Z,1.23
2018-12-20T13:28:03.403Z,2.00
2018-12-20T13:30:31.843Z,1.17
2018-12-20T13:33:00.117Z,1.03
2018-12-20T13:35:28.399Z,1.67
2018-12-20T13:37:56.805Z,1.33
2018-12-20T13:40:25.089Z,1.10
2018-12-20T13:42:53.430Z,0.93
2018-12-20T13:45:21.711Z,0.67
2018-12-20T13:47:50.009Z,0.87
2018-12-20T13:50:18.284Z,1.03
2018-12-20T13:52:46.660Z,1.87
2018-12-20T13:55:14.924Z,2.83
2018-12-20T13:57:43.232Z,1.27
2018-12-20T14:00:13.278Z,0.67
2018-12-20T14:02:41.607Z,1.20
2018-12-20T14:05:09.879Z,0.57
2018-12-20T14:07:38.232Z,2.97
2018-12-20T14:10:06.913Z,1.63
2018-12-20T14:12:35.240Z,2.03
2018-12-20T14:15:03.534Z,0.97
2018-12-20T14:17:31.824Z,1.43
2018-12-20T14:19:59.870Z,1.27
2018-12-20T14:22:28.313Z,1.23
2018-12-20T14:24:56.720Z,0.70
2018-12-20T14:27:25.009Z,3.60
2018-12-20T14:29:53.183Z,0.90
2018-12-20T14:32:21.542Z,1.53
2018-12-20T14:34:49.808Z,1.37
2018-12-20T14:37:18.146Z,1.67
2018-12-20T14:39:46.269Z,2.37
2018-12-20T14:42:14.770Z,1.80
2018-12-20T14:44:43.041Z,1.57
2018-12-20T14:47:11.457Z,1.83
2018-12-20T14:49:39.735Z,1.73
2018-12-20T14:52:08.139Z,2.37
2018-12-20T14:54:37.854Z,3.70
2018-12-20T14:57:06.404Z,2.03
2018-12-20T14:59:34.677Z,2.67
2018-12-20T15:02:03.022Z,1.83
2018-12-20T15:04:31.317Z,3.13
2018-12-20T15:07:00.128Z,2.87
2018-12-20T15:09:28.382Z,2.13
2018-12-20T15:11:56.804Z,2.33
2018-12-20T15:14:25.188Z,1.57
2018-12-20T15:16:53.556Z,2.00
2018-12-20T15:19:22.326Z,4.73
2018-12-20T15:21:50.724Z,3.70
2018-12-20T15:24:20.668Z,1.50
2018-12-20T15:26:49.111Z,1.63
2018-12-20T15:29:17.405Z,2.43
2018-12-20T15:31:53.156Z,1.87
2018-12-20T15:34:16.153Z,1.93
2018-12-20T15:36:44.433Z,1.93
2018-12-20T15:39:12.835Z,1.73
2018-12-20T15:41:41.122Z,4.23
2018-12-20T15:44:09.207Z,0.90
2018-12-20T15:46:37.649Z,2.07
2018-12-20T15:49:06.000Z,1.97
2018-12-20T15:51:34.760Z,2.80
2018-12-20T15:54:03.056Z,3.40
2018-12-20T15:56:31.396Z,2.40
2018-12-20T15:58:59.788Z,0.87
2018-12-20T16:01:28.180Z,2.10
2018-12-20T16:03:56.479Z,2.47
2018-12-20T16:06:24.751Z,1.53
2018-12-20T16:08:53.121Z,3.00
2018-12-20T16:11:21.424Z,4.20
2018-12-20T16:13:49.728Z,1.23
2018-12-20T16:16:18.010Z,1.77
2018-12-20T16:18:46.312Z,4.23
2018-12-20T16:21:14.689Z,3.50
2018-12-20T16:23:43.034Z,6.00
2018-12-20T16:26:11.370Z,4.53
2018-12-20T16:28:39.661Z,2.37
2018-12-20T16:31:07.955Z,1.60
2018-12-20T16:33:36.257Z,5.30
2018-12-20T16:36:04.524Z,3.70
2018-12-20T16:38:32.808Z,7.93
2018-12-20T16:41:01.085Z,4.33
2018-12-20T16:43:29.382Z,3.47
2018-12-20T16:45:57.834Z,2.10
2018-12-20T16:48:26.316Z,1.97
2018-12-20T16:50:54.595Z,2.70
2018-12-20T16:53:22.977Z,2.10
2018-12-20T16:55:51.301Z,3.33
2018-12-20T16:58:19.611Z,3.47
2018-12-20T17:00:47.694Z,3.73
2018-12-20T17:03:15.766Z,1.43
2018-12-20T17:05:43.848Z,1.07
2018-12-20T17:08:13.148Z,1.07
2018-12-20T17:10:41.502Z,5.33
2018-12-20T17:13:09.807Z,3.47
2018-12-20T17:15:38.065Z,1.47
2018-12-20T17:18:06.335Z,1.30
2018-12-20T17:20:34.430Z,1.40
2018-12-20T17:23:02.701Z,1.07
2018-12-20T17:25:30.777Z,1.03
2018-12-20T17:27:58.921Z,1.27
2018-12-20T17:30:27.304Z,2.20
2018-12-20T17:32:55.708Z,1.30
2018-12-20T17:35:23.762Z,2.20
2018-12-20T17:37:52.116Z,1.67
2018-12-20T17:40:20.578Z,2.37
2018-12-20T17:42:48.689Z,2.43
2018-12-20T17:45:17.033Z,2.30
2018-12-20T17:47:45.397Z,1.27
2018-12-20T17:50:13.705Z,2.80
2018-12-20T17:52:42.062Z,2.00
2018-12-20T17:55:10.485Z,1.00
2018-12-20T17:57:38.514Z,4.27
2018-12-20T18:00:08.016Z,4.03
2018-12-20T18:02:36.456Z,2.70
2018-12-20T18:05:07.141Z,1.00
2018-12-20T18:07:36.306Z,1.87
2018-12-20T18:10:06.781Z,1.43
2018-12-20T18:12:35.069Z,0.83
2018-12-20T18:15:03.378Z,1.63
2018-12-20T18:17:31.695Z,3.70
2018-12-20T18:20:00.092Z,6.13
2018-12-20T18:22:28.352Z,1.83
2018-12-20T18:24:56.653Z,1.33
2018-12-20T18:27:25.135Z,1.57
2018-12-20T18:29:53.205Z,1.53
2018-12-20T18:32:21.268Z,1.03
2018-12-20T18:34:49.684Z,2.77
2018-12-20T18:37:18.027Z,1.27
2018-12-20T18:39:46.362Z,1.00
2018-12-20T18:42:14.396Z,3.90
2018-12-20T18:44:42.812Z,1.00
2018-12-20T18:47:11.104Z,0.83
2018-12-20T18:49:47.325Z,1.23
2018-12-20T18:52:09.578Z,1.17
2018-12-20T18:54:39.089Z,16.50
2018-12-20T18:57:07.515Z,1.20
2018-12-20T18:59:35.877Z,0.67
2018-12-20T19:02:03.969Z,0.93
2018-12-20T19:04:32.238Z,0.73
2018-12-20T19:07:00.333Z,2.13
2018-12-20T19:09:28.625Z,1.60
2018-12-20T19:11:56.913Z,2.23
2018-12-20T19:14:24.992Z,1.77
2018-12-20T19:16:53.278Z,0.83
2018-12-20T19:19:21.604Z,0.90
2018-12-20T19:21:49.948Z,0.60
2018-12-20T19:24:18.322Z,1.40
2018-12-20T19:26:46.701Z,5.37
2018-12-20T19:29:15.056Z,2.17
2018-12-20T19:31:43.461Z,3.90
2018-12-20T19:34:11.536Z,3.60
2018-12-20T19:36:39.921Z,1.17
2018-12-20T19:39:10.612Z,0.83
2018-12-20T19:41:38.931Z,2.07
2018-12-20T19:44:07.211Z,0.60
2018-12-20T19:46:35.512Z,0.90
2018-12-20T19:49:03.543Z,2.27
2018-12-20T19:51:31.924Z,2.07
2018-12-20T19:54:00.273Z,2.20
2018-12-20T19:56:28.672Z,1.70
2018-12-20T19:58:56.945Z,0.73
2018-12-20T20:01:25.037Z,1.97
2018-12-20T20:03:53.065Z,1.03
2018-12-20T20:06:21.185Z,1.17
2018-12-20T20:08:49.541Z,1.20
2018-12-20T20:11:17.626Z,1.93
2018-12-20T20:13:46.268Z,3.07
2018-12-20T20:16:14.573Z,1.23
2018-12-20T20:18:42.617Z,1.33
2018-12-20T20:21:10.728Z,3.17
2018-12-20T20:23:38.804Z,1.87
2018-12-20T20:26:06.858Z,1.43
2018-12-20T20:28:35.288Z,2.43
2018-12-20T20:31:03.897Z,0.90
2018-12-20T20:33:32.385Z,1.13
2018-12-20T20:36:00.996Z,1.87
2018-12-20T20:38:29.065Z,2.10
2018-12-20T20:40:57.113Z,1.73
2018-12-20T20:43:25.374Z,2.30
2018-12-20T20:45:53.491Z,1.73
2018-12-20T20:48:21.539Z,1.33
2018-12-20T20:50:49.816Z,2.87
2018-12-20T20:53:17.908Z,0.97
2018-12-20T20:55:45.978Z,1.73
2018-12-20T20:58:14.111Z,1.03
2018-12-20T21:00:42.422Z,1.47
2018-12-20T21:03:10.745Z,2.20
2018-12-20T21:05:38.783Z,3.07
2018-12-20T21:08:06.903Z,1.77
2018-12-20T21:10:35.217Z,2.30
2018-12-20T21:13:03.602Z,1.63
2018-12-20T21:15:31.959Z,1.27
2018-12-20T21:18:00.036Z,1.90
2018-12-20T21:20:30.777Z,1.10
2018-12-20T21:22:58.798Z,3.43
2018-12-20T21:25:26.920Z,2.27
2018-12-20T21:27:55.288Z,1.60
2018-12-20T21:30:23.545Z,3.10
2018-12-20T21:32:51.842Z,2.17
2018-12-20T21:35:20.129Z,2.40
2018-12-20T21:37:48.435Z,4.20
2018-12-20T21:40:16.463Z,2.47
2018-12-20T21:42:44.756Z,1.77
2018-12-20T21:45:13.009Z,1.70
2018-12-20T21:47:41.312Z,3.93
2018-12-20T21:50:09.351Z,3.10
2018-12-20T21:52:37.758Z,2.57
2018-12-20T21:55:06.699Z,2.50
2018-12-20T21:57:34.774Z,2.13
2018-12-20T22:00:03.379Z,2.07
2018-12-20T22:02:31.727Z,3.30
2018-12-20T22:04:59.759Z,2.23
2018-12-20T22:07:28.109Z,1.40
2018-12-20T22:09:56.419Z,2.87
2018-12-20T22:12:24.867Z,2.60
2018-12-20T22:14:53.133Z,2.87
2018-12-20T22:17:21.451Z,2.87
2018-12-20T22:19:49.481Z,3.20
2018-12-20T22:22:17.623Z,1.50
2018-12-20T22:24:45.970Z,2.20
2018-12-20T22:27:14.039Z,1.77
2018-12-20T22:29:42.323Z,2.00
2018-12-20T22:32:10.477Z,1.57
2018-12-20T22:34:38.754Z,1.67
2018-12-20T22:37:07.234Z,1.40
2018-12-20T22:39:35.833Z,1.70
2018-12-20T22:42:03.876Z,2.83
2018-12-20T22:44:32.284Z,2.57
2018-12-20T22:47:00.620Z,1.63
2018-12-20T22:49:29.559Z,5.23
2018-12-20T22:51:58.004Z,2.90
2018-12-20T22:54:26.774Z,1.23
2018-12-20T22:56:54.919Z,1.57
2018-12-20T22:59:23.157Z,3.47
2018-12-20T23:01:51.278Z,2.00
2018-12-20T23:04:19.754Z,1.57
2018-12-20T23:06:48.078Z,2.33
2018-12-20T23:09:16.506Z,1.73
2018-12-20T23:11:44.557Z,3.13
2018-12-20T23:14:12.864Z,3.83
2018-12-20T23:16:41.155Z,1.23
2018-12-20T23:19:09.327Z,2.30
2018-12-20T23:21:37.376Z,2.20
2018-12-20T23:24:05.681Z,1.77
2018-12-20T23:26:33.944Z,2.03
2018-12-20T23:29:02.310Z,2.60
2018-12-20T23:31:30.340Z,2.33
2018-12-20T23:33:58.864Z,1.57
2018-12-20T23:36:27.156Z,2.30
2018-12-20T23:38:55.453Z,1.67
2018-12-20T23:41:23.826Z,1.27
2018-12-20T23:43:51.892Z,3.67
2018-12-20T23:46:20.255Z,2.13
2018-12-20T23:48:48.305Z,3.20
2018-12-20T23:51:16.621Z,2.47
2018-12-20T23:53:44.987Z,1.97
2018-12-20T23:56:13.276Z,1.70
2018-12-20T23:58:41.615Z,2.13
